Relatório Geral Masculino
Coloc. Num. Atleta Idade Sexo Fx.Et. Cl.Fx.Et. Tempo Equipe
1 385 JOÃO PAULO SOUSA SANTOS 37 M M3539 - 00:17:45 WS Race
2 290 ALESSANDRO INÁCIO 36 M M3539 - 00:18:20 WS
3 355 FRANCISCO BRITO DE SOUSA 34 M M3034 - 00:18:31 Individual
4 338 FABIANO VILELA DA SILVA 45 M M4549 - 00:18:46 Ws consultoria
5 283 ADALBERTO BRITO DE SOUSA 40 M M4044 1 00:19:06 Ws
6 489 WAGNER LUIZ PINTO MONTEIRO 42 M M4044 2 00:19:15 WS Race
7 418 LUIS FERNANDO DOS SANTOS MOREIRA 22 M M2024 1 00:19:50 Ação Fitness
8 412 LUCAS DE OLIVEIRA DA SILVA LEITE 23 M M2024 2 00:20:09 Ws Race
9 409 LEONARDO SILVA SANTOS 27 M M2529 1 00:20:14 WS Race
10 459 RENAN SALVADOR 34 M M3034 1 00:20:25 .
11 373 JAIRO DOS SANTOS PEREIRA 43 M M4044 3 00:20:33 Avulso
12 369 HERTON JONES ALVES 46 M M4549 - 00:21:13 Angrarunners
13 381 JOÃO GABRIEL DOS SANTOS XAVIER 24 M M2024 3 00:21:25 MOVE BETTER TEAM
14 366 GUSTAVO DO CARMO 16 M M1619 1 00:21:35 Angrarunner
15 435 MURILO SOARES JARDIM 33 M M3034 2 00:21:36 AFFA
16 363 GREYSON JONATHAN DA ROSA 37 M M3539 1 00:21:52 .
17 466 RODRIGO ARANTES REIS 24 M M2024 4 00:21:53 DESBRAVADORES
18 420 LUIS PAULO TENORIO MEIRA 20 M M2024 5 00:21:54 angra runners
19 372 IVAN DOUGLAS VIEIRA 45 M M4549 - 00:22:00 Angra Runners
20 287 ADRIANO CAMARGO DE OLIVEIRA 55 M M5559 1 00:22:06 .
21 343 DIEGO MAMEDIO 25 M M2529 2 00:22:07 WS RACE
22 380 JOÃO CARLOS DANTAS DA COSTA 34 M M3034 3 00:22:07 .
23 356 FRANCISCO DAS CHAGAS SANTOS DA SILV 34 M M3034 4 00:22:13 Avulso
24 425 MARCIO SILVA QUARESMA 43 M M4044 4 00:22:15 .
25 284 ADELSON DA SILVA APOLINARIO 54 M M5054 1 00:22:21 Desblavadores
26 495 WILLIAM MAIA LINO 32 M M3034 5 00:22:37 Sem equipe
27 298 ANDERSON AZEVEDO DE OLIVEIRA 38 M M3539 2 00:22:41 WS Race
28 487 VINÍCIUS HONÓRIO DE OLIVEIRA 19 M M1619 2 00:22:45 Não tenho
29 307 BRUNO ABREU 25 M M2529 3 00:22:54 .
30 317 CESAR AUGUSTO ALMEIDA DE SOUZA 27 M M2529 4 00:22:55 DESBRAVADORES
31 416 LUIS CARLOS RODRIGUES 54 M M5054 2 00:23:09 Ws Race
32 498 MARCO ANTONIO R DOS SANTOS 50 M M5054 3 00:23:12 .
33 308 BRUNO DA SILVA MENDES 27 M M2529 5 00:23:23 .
34 417 LUÍS CLÁUDIO RAMOS 48 M M4549 1 00:23:34 WS RACE
35 375 JEFFERSON MATHEUS DOS SANTOS SILVA 21 M M2024 6 00:23:38 Desbravadores
36 424 MARCELO DIAS TAVARES 26 M M2529 6 00:23:45 MT Runners
37 329 DOUGLAS NEVES SOARES 35 M M3539 3 00:23:55 WS RACE Consultoria
38 305 ARTUR RANGEL FEIJÓ 35 M M3539 4 00:23:56 AFFA treinamento
39 368 HENZO BARROS DE SOUZA 16 M M1619 3 00:24:20 Não
40 488 VINICIUS RIBEIRO CRUZ 26 M M2529 7 00:24:20 DESBRAVADORES
41 419 LUIS HENRIQUE DOS SANTOS 46 M M4549 2 00:24:22 Angra runners
42 406 LEONARDO CABRAL SOARES 42 M M4044 5 00:24:32 Metals
43 357 FRANCISCO DE ANDRADE LOPES FILHO 50 M M5054 4 00:24:35 .
44 370 IDVANO DOS SANTOS FIGUEIREDO 42 M M4044 6 00:24:41 Mutaru
45 314 CARLOS ANDRÉ BEZERRA DOS SANTOS 41 M M4044 7 00:24:42 Avulso
46 324 DIEGO DE LIMA E SILVA 31 M M3034 6 00:24:45 Ilha grande na corrida
47 404 CLAIR SILVA MARÇAL 50 M M5054 5 00:24:46 Mofaya
48 349 MARIO CLEMENTINO DA FONSECA 67 M M6569 1 00:24:51 Angra Runners
49 337 FABIAN LOPES 48 M M4549 3 00:25:03 Angra Runners
50 339 FÁBIO 21 M M2024 7 00:25:09 Pantera Runners
51 443 PEDRO GARCIA DE TOLEDO 31 M M3034 7 00:25:10 .
52 399 JOSE ROBERTO DA SILVA 45 M M4549 4 00:25:18 avulso
53 434 MICHANDRE MIRANDA DIAS 38 M M3539 5 00:25:19 Frade runners
54 392 JORGE ALBERTO BAROUCH FILHO 29 M M2529 8 00:25:24 .
55 302 ARNALDO DOS SANTOS PIRES 41 M M4044 8 00:25:31 Adsumus
56 347 FELIPE AZEVÊDO DE OLIVEIRA 20 M M2024 8 00:25:31 .
57 354 FLÁVIO PEREIRA DE ARAÚJO 34 M M3034 8 00:25:34 Avulso
58 426 MARCO ANDRÉ LINDO MENDONÇA 51 M M5054 6 00:25:38 Pantera runners
59 333 ELIELSON DE SANTANA LOPES 41 M M4044 9 00:25:42 Desbravadores
60 499 SILVIO DE ANDRADE CAMPOS 55 M M5559 2 00:25:55 .
61 480 TIAGO MENDES 26 M M2529 9 00:25:56 WS RACE
62 456 REGINALDO DE SOUZA 62 M M6064 1 00:26:04 ATM
63 336 ERNANI 35 M M3539 6 00:26:16 Ilha Grande na Corrida
64 482 VALDEZ DO NASCIMENTO FARIA 46 M M4549 5 00:26:29 Angrarunners
65 402 KAÊ DUARTE GONÇALVES 30 M M3034 9 00:26:44 .
66 431 MAURICIO ABREU DE TOLEDO 56 M M5559 3 00:27:20 .
67 361 GIDEON CYTRANGULO DE BARROS 34 M M3034 10 00:27:37 .
68 448 PETRUCIO MANDU DE LIMA 44 M M4044 10 00:27:40 angra runner
69 491 WELINGTON CRISTO DOS SANTOS 35 M M3539 7 00:27:40 Apadev
70 471 RODRIGO THIAGO AZEVEDO DE SOUZA 31 M M3034 11 00:27:41 .
71 365 GUILHERME FREITAS SIMIÃO 35 M M3539 8 00:27:45 .
72 321 DANIEL FELIPE DE MEDEIROS 18 M M1619 4 00:27:46 .
73 378 JESIEL DE CASTRO 46 M M4549 6 00:27:49 WS assessoria
74 396 JOSE LUIS MORETO 42 M M4044 11 00:28:10 .
75 335 ERICK ANICETO 34 M M3034 12 00:28:49 Pantera Runners
76 313 CARLOS ALBERTO GUIMARÃES 54 M M5054 7 00:28:53 Cacau
77 433 MICHAEL DE ALMEIDA RODRIGUES 23 M M2024 9 00:28:59 .
78 345 FABRICIO MORAES TROITINHO 32 M M3034 13 00:29:21 .
79 465 RODOLFO GUIMARÃES MONTEIRO 26 M M2529 10 00:29:32 Não
80 326 DOUGLAS AZEVEDO LIMA 40 M M4044 12 00:29:40 MT-RUNNERS
81 353 FERNANDO JOSÉ DE SOUZA 40 M M4044 13 00:29:46 Não
82 387 JOÃO VICTOR ROSA COSTA 17 M M1619 5 00:30:13 Angra Runners
83 481 VALDEMIR GONÇALVES NUNES FILHO 39 M M3539 9 00:30:13 Equipe desbravadores
84 427 MARCO AURELIO DE OLIVEIRA PORTO 38 M M3539 10 00:30:28 Angra Runners
85 334 ELVIO MANOEL DE SOUZA PINTO 55 M M5559 4 00:30:40 .
86 377 JERNEY PEREIRA ARAUJO 43 M M4044 14 00:31:10 .
87 476 TÉRCIO RAMOS 46 M M4549 7 00:31:24 Pantera Runners
88 442 PAULO VICTOR CORREA DA COSTA 32 M M3034 14 00:31:29 Pantera Runners
89 484 VÍCTOR RIBEIRO 20 M M2024 10 00:31:35 Pantera Runners
90 367 HELIO QUARESMA 70 M M7074 1 00:31:40 .
91 450 RAFAEL GARCIA DA SILVA 31 M M3034 15 00:32:02 .
92 341 FÁBIO DA CONCEIÇÃO 35 M M3539 11 00:32:07 AFFA
93 315 CARLOS HENRIQUE MAIA DA SILVA 34 M M3034 16 00:32:08 .
94 415 LUÍS CARLOS GONÇALVES ROSA 65 M M6569 2 00:32:16 Angrarunners
95 350 FELIPE REIS DOS SANTOS 37 M M3539 12 00:32:30 .
96 449 RAFAEL ALMEIDA DE OLIVEIRA 32 M M3034 17 00:33:27 .
97 469 RODRIGO PAULINO RIOS 42 M M4044 15 00:33:49 .
98 318 CHARLES DE CASTRO 33 M M3034 18 00:33:50 Azul
99 346 FELIPE AGUIAR FERREIRA 35 M M3539 13 00:34:17 .
100 436 NILSON PIMENTA SOUZA 41 M M4044 16 00:34:32 Pimenta Rosa Runners
101 398 JOSÉ RICARDO SOARES BIZERRA 17 M M1619 6 00:35:06 .
102 490 WEDSON SOARES DA SILVA 36 M M3539 14 00:35:29 WS Race
103 407 LEONARDO DA SILVA DE OLIVEIRA 29 M M2529 11 00:35:55 WS Race
104 485 VINICIUS ARCENO RAMOS DA SILVA 34 M M3034 19 00:36:47 wsrace
105 289 ALAN BRAZ PADILHA 40 M M4044 17 00:36:58 AVULSO
106 423 MARCEL OLIVEIRA DE SOUZA 36 M M3539 15 00:36:58 .
107 493 WELLINGTON PEREIRA DA SILVA 44 M M4044 18 00:37:04 .
108 328 DOUGLAS LIRA PEREIRA 28 M M2529 12 00:37:30 .
109 292 ALEX CORREIA DOS SANTOS 37 M M3539 16 00:37:51 .
110 451 RAFAEL VIDAL DOS SANTOS DE ASSIS 35 M M3539 17 00:37:55 WS Race
111 310 BRUNO VIDAL DOS SANTOS 37 M M3539 18 00:40:01 WS
112 467 RODRIGO BERNARDES DE OLIVEIRA 41 M M4044 19 00:40:37 Angra Runners
113 351 FERNANDO CAUÊ QUEIROZ NASCENTE DE O 21 M M2024 11 00:42:41 Turtle
114 483 VANDERSON CARLOS DA SILVA 38 M M3539 19 00:42:42 .
115 382 JOÃO LUIS DA SILVA IGNACIO 49 M M4549 8 00:44:10 .
116 374 JAIRO WASHINGTON PEREIRA DE QUEIROZ 36 M M3539 20 00:45:18 Corrida Pink & Blue
117 405 LEANDRO LUCAS SUOMINSKY RIBEIRO 14 M M0015 1 00:46:20 .
118 463 RINALDO TELLES DE LEIROS 54 M M5054 8 00:46:31 .
119 344 FABIO SILVA SALDANHA DE MENEZES 49 M M4549 9 00:47:08 ANGRA RUNNERS
120 446 PEDRO RODRIGUES DE MENEZES 24 M M2024 12 00:53:45 .
121 462 RICHARD CORRÊA DOS SANTOS 23 M M2024 13 00:53:51 .